Time;durP1;ratioP1;P1;durP2;ratioP2;P2;SDS_P1;SDS_P2;PMS_P1;PMS_P2;Temp;Humidity;BMP_temperature;BMP_pressure;BME280_temperature;BME280_humidity;BME280_pressure;Samples;Min_cycle;Max_cycle;Signal;HPM_P1;HPM_P2
2023/08/17 00:00:20;;;;;;;7.93;2.53;;;;;;;18.55;70.51;100752.63;10125454;29;20059;-75
2023/08/17 00:05:26;;;;;;;4.75;2.40;;;;;;;18.31;71.86;100737.09;10123345;29;20741;-74
2023/08/17 00:10:29;;;;;;;3.90;2.15;;;;;;;18.13;73.28;100745.41;10116387;28;20071;-75
2023/08/17 00:15:32;;;;;;;8.55;3.10;;;;;;;17.96;75.27;100738.16;10123778;28;20509;-75
2023/08/17 00:20:36;;;;;;;4.97;2.78;;;;;;;17.73;78.35;100746.03;10126418;29;20146;-75
2023/08/17 00:25:39;;;;;;;6.05;2.95;;;;;;;17.47;81.20;100736.91;10117773;29;20066;-75
2023/08/17 00:30:42;;;;;;;6.40;3.00;;;;;;;17.18;83.29;100741.81;10124775;29;20601;-75
2023/08/17 00:35:46;;;;;;;7.55;3.70;;;;;;;16.97;86.11;100742.97;10121650;29;20528;-75
2023/08/17 00:40:49;;;;;;;4.28;2.92;;;;;;;16.90;88.67;100738.34;10122137;28;20055;-75
2023/08/17 00:45:52;;;;;;;5.90;3.50;;;;;;;16.88;89.48;100743.91;10119818;29;20056;-74
2023/08/17 00:50:58;;;;;;;11.10;3.70;;;;;;;16.83;89.26;100743.53;10111865;29;20049;-75
2023/08/17 00:56:03;;;;;;;13.25;4.38;;;;;;;16.83;90.28;100767.09;10115099;29;20059;-75
2023/08/17 01:01:06;;;;;;;8.00;3.88;;;;;;;16.99;90.56;100757.25;10109262;29;20096;-75
2023/08/17 01:06:10;;;;;;;11.02;4.47;;;;;;;17.06;90.41;100729.47;10117516;28;20139;-75
2023/08/17 01:11:23;;;;;;;5.85;4.30;;;;;;;16.93;89.46;100729.91;10118566;29;20107;-74
2023/08/17 01:16:29;;;;;;;9.15;4.10;;;;;;;16.81;89.75;100723.84;10106845;29;20064;-75
2023/08/17 01:21:41;;;;;;;8.13;4.38;;;;;;;16.78;89.29;100718.72;10121216;29;20048;-75
2023/08/17 01:26:46;;;;;;;9.20;4.30;;;;;;;16.76;89.31;100729.75;10128236;29;20059;-76
2023/08/17 01:31:55;;;;;;;9.48;4.70;;;;;;;16.80;89.99;100731.13;10124555;29;21664;-75
2023/08/17 01:37:01;;;;;;;8.85;4.30;;;;;;;16.87;89.83;100723.25;10117224;28;20052;-75
2023/08/17 01:42:07;;;;;;;7.03;3.65;;;;;;;16.88;89.29;100726.78;10118369;28;20090;-75
2023/08/17 01:47:11;;;;;;;7.30;4.78;;;;;;;16.81;89.15;100715.69;10128197;29;20055;-77
2023/08/17 01:52:14;;;;;;;10.73;5.03;;;;;;;16.74;89.20;100715.50;10109434;29;20531;-76
2023/08/17 01:57:18;;;;;;;8.98;4.93;;;;;;;16.64;89.56;100724.72;10114648;29;20494;-76
2023/08/17 02:02:21;;;;;;;9.35;5.13;;;;;;;16.57;89.52;100722.63;10131823;28;20059;-76
2023/08/17 02:07:24;;;;;;;9.13;5.13;;;;;;;16.43;89.58;100739.47;10117624;28;20162;-76
2023/08/17 02:12:29;;;;;;;8.93;5.32;;;;;;;16.41;89.75;100744.16;10124013;28;20135;-76
2023/08/17 02:17:32;;;;;;;8.48;5.10;;;;;;;16.41;90.23;100755.00;10121280;29;20059;-76
2023/08/17 02:22:35;;;;;;;9.23;4.88;;;;;;;16.61;90.55;100734.03;10123582;29;20143;-76
2023/08/17 02:27:39;;;;;;;8.15;5.10;;;;;;;16.63;91.32;100736.59;10130578;29;20052;-75
2023/08/17 02:32:42;;;;;;;10.43;5.15;;;;;;;16.67;90.29;100736.09;10116078;28;20082;-76
2023/08/17 02:37:45;;;;;;;7.78;4.47;;;;;;;16.63;90.58;100739.31;10110845;28;20601;-76
2023/08/17 02:42:49;;;;;;;11.50;5.10;;;;;;;16.72;91.66;100733.78;10112490;29;21185;-76
2023/08/17 02:47:52;;;;;;;10.57;4.75;;;;;;;16.73;90.49;100723.78;10123264;29;20063;-76
2023/08/17 02:52:55;;;;;;;9.02;4.95;;;;;;;16.43;90.73;100723.19;10123426;29;20047;-76
2023/08/17 02:57:59;;;;;;;8.75;5.78;;;;;;;16.58;91.42;100712.63;10130708;28;21495;-76
2023/08/17 03:03:03;;;;;;;14.38;8.32;;;;;;;16.56;91.19;100712.81;10112834;28;20558;-76
2023/08/17 03:08:06;;;;;;;12.43;6.00;;;;;;;16.48;91.77;100710.03;10115048;29;20771;-76
2023/08/17 03:13:10;;;;;;;9.32;5.78;;;;;;;16.21;91.93;100719.03;10124520;29;20052;-76
2023/08/17 03:18:13;;;;;;;10.70;6.07;;;;;;;16.06;92.51;100715.97;10124098;29;20047;-75
2023/08/17 03:23:16;;;;;;;10.55;6.15;;;;;;;16.10;93.76;100708.41;10130262;28;20044;-76
2023/08/17 03:28:21;;;;;;;10.98;7.20;;;;;;;16.15;93.89;100712.38;10115852;28;20049;-76
2023/08/17 03:33:24;;;;;;;11.65;6.65;;;;;;;16.14;94.22;100712.50;10118447;29;20064;-76
2023/08/17 03:38:27;;;;;;;12.93;7.15;;;;;;;16.18;95.20;100700.38;10126161;29;20052;-75
2023/08/17 03:43:32;;;;;;;8.98;6.40;;;;;;;16.04;95.39;100693.59;10129705;29;20066;-76
2023/08/17 03:48:36;;;;;;;12.50;7.70;;;;;;;15.99;95.39;100695.06;10130801;29;20429;-76
2023/08/17 03:53:41;;;;;;;13.05;7.35;;;;;;;16.01;95.96;100701.19;10129132;28;20729;-76
2023/08/17 03:58:45;;;;;;;12.02;8.05;;;;;;;15.87;96.31;100697.97;10128373;28;20059;-76
2023/08/17 04:03:48;;;;;;;15.00;7.90;;;;;;;15.99;95.74;100704.06;10137258;28;20071;-76
2023/08/17 04:08:51;;;;;;;14.93;7.28;;;;;;;15.83;98.44;100699.28;10133366;29;20146;-76
2023/08/17 04:13:55;;;;;;;15.85;7.50;;;;;;;15.96;96.01;100698.06;10125623;29;20060;-76
2023/08/17 04:18:58;;;;;;;11.82;7.28;;;;;;;16.00;96.01;100691.34;10125147;28;20123;-76
2023/08/17 04:24:01;;;;;;;10.52;7.07;;;;;;;16.02;95.42;100684.78;10123912;29;20058;-76
2023/08/17 04:29:06;;;;;;;9.27;6.53;;;;;;;15.97;95.66;100695.22;10124995;29;20428;-76
2023/08/17 04:34:10;;;;;;;11.38;7.78;;;;;;;15.92;95.26;100705.66;10126736;29;20076;-76
2023/08/17 04:39:13;;;;;;;10.13;7.72;;;;;;;15.89;96.16;100712.22;10136847;29;20053;-76
2023/08/17 04:44:20;;;;;;;12.55;7.40;;;;;;;16.00;95.91;100727.44;10133117;28;20055;-75
2023/08/17 04:49:23;;;;;;;11.68;7.75;;;;;;;16.07;95.93;100723.13;10128010;29;20056;-75
2023/08/17 04:54:26;;;;;;;13.05;7.30;;;;;;;16.03;95.91;100721.69;10130188;29;20060;-76
2023/08/17 04:59:30;;;;;;;11.32;6.93;;;;;;;16.10;96.31;100716.53;10133097;29;20048;-75
2023/08/17 05:04:33;;;;;;;8.80;6.60;;;;;;;16.24;96.33;100720.59;10136275;29;20047;-74
2023/08/17 05:09:36;;;;;;;12.88;6.85;;;;;;;16.35;96.33;100704.13;10127780;29;20080;-76
2023/08/17 05:14:40;;;;;;;10.20;6.63;;;;;;;16.31;96.27;100706.28;10125360;28;20540;-75
2023/08/17 05:19:43;;;;;;;11.95;6.75;;;;;;;16.82;98.24;100706.56;10130481;29;20120;-75
2023/08/17 05:24:47;;;;;;;7.82;5.28;;;;;;;16.87;95.92;100728.66;10135053;29;20056;-75
2023/08/17 05:29:51;;;;;;;7.93;4.57;;;;;;;16.94;96.61;100737.84;10128741;29;20548;-76
2023/08/17 05:34:54;;;;;;;8.38;5.43;;;;;;;16.96;94.84;100745.84;10131141;29;20048;-76
2023/08/17 05:39:57;;;;;;;7.45;5.80;;;;;;;16.95;94.55;100741.41;10131049;28;20052;-76
2023/08/17 05:45:02;;;;;;;7.00;4.72;;;;;;;16.95;94.46;100736.88;10137107;28;20131;-76
2023/08/17 05:50:06;;;;;;;10.25;6.20;;;;;;;17.25;94.31;100734.72;10136995;28;20134;-76
2023/08/17 05:55:09;;;;;;;10.02;5.57;;;;;;;17.18;91.85;100734.53;10130635;29;20052;-76
2023/08/17 06:00:15;;;;;;;13.32;6.80;;;;;;;17.18;91.19;100733.66;10124945;29;20131;-75
2023/08/17 06:05:18;;;;;;;9.90;5.63;;;;;;;17.45;91.58;100738.09;10126608;28;20083;-76
2023/08/17 06:10:24;;;;;;;7.63;4.65;;;;;;;17.68;91.12;100727.50;10123844;28;20058;-76
2023/08/17 06:15:29;;;;;;;7.28;4.00;;;;;;;17.96;90.62;100732.72;10130636;29;20053;-76
2023/08/17 06:20:32;;;;;;;8.48;5.00;;;;;;;17.95;90.73;100733.75;10129309;29;20047;-76
2023/08/17 06:25:35;;;;;;;9.50;5.45;;;;;;;18.18;90.30;100729.41;10122285;29;20660;-75
2023/08/17 06:30:39;;;;;;;11.55;6.00;;;;;;;18.16;89.38;100736.91;10121463;29;20059;-76
2023/08/17 06:35:42;;;;;;;10.05;4.82;;;;;;;18.49;89.58;100724.22;10122933;28;20060;-75
2023/08/17 06:40:46;;;;;;;9.68;4.63;;;;;;;18.56;88.37;100721.66;10125076;28;20052;-75
2023/08/17 06:45:50;;;;;;;9.07;6.60;;;;;;;18.40;86.85;100721.66;10123903;29;20523;-76
2023/08/17 06:50:53;;;;;;;7.80;6.22;;;;;;;18.21;88.21;100730.94;10119425;29;20079;-75
2023/08/17 06:55:56;;;;;;;12.35;6.85;;;;;;;18.02;88.67;100737.50;10122081;29;20702;-75
2023/08/17 07:01:02;;;;;;;13.27;8.55;;;;;;;17.80;87.93;100744.38;10122404;28;20049;-75
2023/08/17 07:06:05;;;;;;;11.75;7.07;;;;;;;17.86;90.07;100751.88;10128413;28;20052;-75
2023/08/17 07:11:08;;;;;;;11.15;7.82;;;;;;;18.15;89.90;100756.94;10118082;29;20088;-75
2023/08/17 07:16:12;;;;;;;12.45;8.63;;;;;;;18.24;89.21;100757.81;10118877;29;20186;-75
2023/08/17 07:21:15;;;;;;;14.00;7.68;;;;;;;18.05;89.04;100757.09;10124163;29;20059;-75
2023/08/17 07:26:18;;;;;;;15.05;9.60;;;;;;;18.19;90.56;100762.91;10125424;29;20048;-75
2023/08/17 07:31:23;;;;;;;18.58;11.02;;;;;;;18.42;90.16;100760.41;10125959;28;20597;-74
2023/08/17 07:36:25;;;;;;;13.23;10.23;;;;;;;18.50;87.53;100760.44;10121432;29;20052;-75
2023/08/17 07:41:28;;;;;;;13.20;9.30;;;;;;;18.38;88.44;100753.63;10126271;29;20181;-75
2023/08/17 07:46:32;;;;;;;12.95;9.57;;;;;;;18.30;88.17;100757.16;10131562;29;20055;-75
2023/08/17 07:51:35;;;;;;;12.05;8.45;;;;;;;18.30;86.53;100758.00;10125099;29;20059;-76
2023/08/17 07:56:38;;;;;;;9.95;8.65;;;;;;;18.46;89.23;100754.47;10125624;28;20071;-75
2023/08/17 08:01:42;;;;;;;9.30;6.50;;;;;;;18.53;87.71;100768.25;10124182;28;20488;-75
2023/08/17 08:06:46;;;;;;;12.40;9.00;;;;;;;18.54;88.79;100775.38;10121773;29;20056;-75
2023/08/17 08:11:49;;;;;;;10.32;7.45;;;;;;;18.56;87.97;100774.19;10126265;29;21740;-75
2023/08/17 08:16:53;;;;;;;10.45;7.47;;;;;;;18.76;87.52;100780.22;10129657;29;20051;-75
2023/08/17 08:21:56;;;;;;;9.43;7.03;;;;;;;18.87;85.73;100781.78;10135249;28;20044;-75
2023/08/17 08:27:00;;;;;;;8.65;6.60;;;;;;;19.12;88.29;100782.63;10129085;28;21329;-76
2023/08/17 08:32:04;;;;;;;8.57;6.93;;;;;;;19.05;85.74;100772.59;10128441;29;20590;-76
2023/08/17 08:37:07;;;;;;;8.50;6.80;;;;;;;18.94;85.19;100780.06;10133100;29;20088;-76
2023/08/17 08:42:10;;;;;;;8.63;4.47;;;;;;;19.10;86.29;100779.22;10138342;29;20715;-76
2023/08/17 08:47:14;;;;;;;8.80;6.85;;;;;;;19.14;85.00;100777.88;10133647;29;20598;-75
2023/08/17 08:52:23;;;;;;;9.32;6.68;;;;;;;19.05;84.67;100775.31;10124392;28;20724;-76
2023/08/17 08:57:29;;;;;;;11.75;7.68;;;;;;;19.05;85.80;100765.25;10129726;29;20083;-75
2023/08/17 09:02:35;;;;;;;8.88;6.45;;;;;;;19.02;82.77;100771.91;10137728;29;21285;-76
2023/08/17 09:07:38;;;;;;;5.90;5.35;;;;;;;19.30;84.11;100767.97;10130836;29;20044;-75
2023/08/17 09:12:43;;;;;;;10.10;5.55;;;;;;;19.50;82.39;100761.13;10131636;29;20052;-75
2023/08/17 09:17:51;;;;;;;9.18;6.88;;;;;;;20.02;82.67;100757.94;10130682;28;20071;-75
2023/08/17 09:22:58;;;;;;;10.57;6.55;;;;;;;20.44;81.00;100755.84;10124699;28;20139;-75
2023/08/17 09:28:08;;;;;;;9.32;5.80;;;;;;;20.73;79.13;100746.94;10128136;29;20054;-75
2023/08/17 09:33:16;;;;;;;11.10;7.65;;;;;;;20.55;76.85;100753.56;10129182;29;20059;-75
2023/08/17 09:38:20;;;;;;;8.95;6.78;;;;;;;20.31;79.34;100754.56;10133639;29;20052;-75
2023/08/17 09:43:24;;;;;;;5.72;4.93;;;;;;;20.13;81.58;100751.22;10142557;28;20265;-74
2023/08/17 09:48:29;;;;;;;8.63;5.50;;;;;;;20.11;80.46;100758.72;10133875;28;20575;-75
2023/08/17 09:53:37;;;;;;;9.13;6.47;;;;;;;19.88;79.76;100758.66;10135594;29;20078;-75
2023/08/17 09:58:40;;;;;;;8.18;6.97;;;;;;;19.53;81.53;100752.63;10136008;28;20064;-75
2023/08/17 10:03:46;;;;;;;9.85;7.38;;;;;;;19.57;81.71;100744.97;10126742;28;21890;-75
2023/08/17 10:08:53;;;;;;;9.48;6.25;;;;;;;19.65;80.71;100739.50;10127431;29;20079;-75
2023/08/17 10:14:02;;;;;;;7.10;6.35;;;;;;;19.81;83.59;100744.88;10129143;29;20106;-74
2023/08/17 10:19:14;;;;;;;10.38;6.50;;;;;;;19.62;79.75;100750.75;10131708;29;20048;-75
2023/08/17 10:24:19;;;;;;;10.68;7.32;;;;;;;19.48;81.05;100756.88;10121224;29;20059;-74
2023/08/17 10:29:23;;;;;;;8.90;6.93;;;;;;;19.47;81.77;100756.00;10127963;29;20877;-74
2023/08/17 10:34:29;;;;;;;7.93;6.57;;;;;;;19.62;81.32;100750.75;10130145;28;20505;-74
2023/08/17 10:39:34;;;;;;;8.77;6.82;;;;;;;19.77;81.63;100750.84;10122615;28;20056;-74
2023/08/17 10:44:45;;;;;;;10.40;7.25;;;;;;;19.81;79.31;100766.69;10127809;29;20448;-74
2023/08/17 10:49:51;;;;;;;8.55;7.22;;;;;;;19.54;78.79;100767.94;10125754;29;21187;-74
2023/08/17 10:54:54;;;;;;;8.32;6.90;;;;;;;19.50;80.13;100766.59;10124886;29;20099;-74
2023/08/17 11:00:24;;;;;;;11.45;8.48;;;;;;;19.44;80.19;100769.97;10121074;29;20901;-74
2023/08/17 11:05:39;;;;;;;9.10;7.65;;;;;;;19.22;79.72;100782.44;10119563;28;20887;-74
2023/08/17 11:10:43;;;;;;;12.18;8.02;;;;;;;19.23;81.13;100779.56;10126657;28;20601;-74
2023/08/17 11:15:50;;;;;;;13.38;8.27;;;;;;;19.20;81.71;100779.91;10131956;29;20078;-74
2023/08/17 11:20:55;;;;;;;9.88;7.90;;;;;;;19.21;81.24;100789.75;10130028;28;20052;-75
2023/08/17 11:25:58;;;;;;;9.52;8.52;;;;;;;19.31;80.51;100795.03;10129896;28;20157;-74
2023/08/17 11:31:03;;;;;;;11.70;8.93;;;;;;;19.34;79.52;100797.44;10130073;28;20059;-74
2023/08/17 11:36:09;;;;;;;10.50;8.70;;;;;;;19.37;79.40;100794.34;10127146;29;21244;-74
2023/08/17 11:41:14;;;;;;;7.97;7.15;;;;;;;19.49;80.52;100794.00;10135326;28;20766;-74
2023/08/17 11:46:22;;;;;;;8.80;7.88;;;;;;;19.51;80.51;100791.94;10135132;28;20516;-74
2023/08/17 11:51:32;;;;;;;9.55;7.65;;;;;;;19.50;79.06;100799.28;10131894;29;20213;-73
2023/08/17 11:56:35;;;;;;;11.38;7.80;;;;;;;19.53;78.63;100796.22;10130569;28;20428;-74
2023/08/17 12:01:38;;;;;;;9.00;7.57;;;;;;;19.68;77.45;100791.75;10129916;29;20554;-74
2023/08/17 12:06:45;;;;;;;9.43;8.38;;;;;;;19.74;77.74;100789.38;10124293;29;20535;-74
2023/08/17 12:11:48;;;;;;;9.45;8.00;;;;;;;19.78;77.28;100777.94;10121375;29;20578;-75
2023/08/17 12:16:51;;;;;;;8.20;6.72;;;;;;;19.70;77.99;100788.88;10129621;29;20060;-74
2023/08/17 12:21:55;;;;;;;10.23;7.60;;;;;;;19.65;79.30;100789.38;10126759;28;20065;-74
2023/08/17 12:26:59;;;;;;;11.88;7.00;;;;;;;19.55;79.38;100790.56;10114951;29;20575;-74
2023/08/17 12:32:02;;;;;;;7.03;6.10;;;;;;;19.58;77.99;100787.53;10127993;28;20052;-74
2023/08/17 12:37:09;;;;;;;9.90;7.00;;;;;;;19.56;77.59;100787.72;10136214;28;20508;-74
2023/08/17 12:42:12;;;;;;;9.15;7.70;;;;;;;19.62;77.61;100784.28;10130925;29;20056;-74
2023/08/17 12:47:15;;;;;;;8.40;7.32;;;;;;;19.66;75.78;100782.06;10136446;28;20056;-74
2023/08/17 12:52:19;;;;;;;7.72;6.28;;;;;;;19.75;75.60;100778.31;10130143;28;20059;-73
2023/08/17 12:57:22;;;;;;;10.00;6.88;;;;;;;19.88;74.19;100775.88;10119914;28;21135;-74
2023/08/17 13:02:24;;;;;;;6.43;5.82;;;;;;;19.77;74.45;100780.84;10121364;29;20067;-75
2023/08/17 13:07:29;;;;;;;9.60;6.25;;;;;;;19.84;74.33;100787.28;10131408;29;20138;-75
2023/08/17 13:12:32;;;;;;;7.13;5.70;;;;;;;19.74;74.04;100792.94;10129208;29;20055;-75
2023/08/17 13:17:35;;;;;;;9.32;6.10;;;;;;;19.53;74.53;100796.22;10128241;28;20062;-75
2023/08/17 13:22:39;;;;;;;9.65;6.55;;;;;;;19.40;74.69;100804.06;10129217;28;20059;-75
2023/08/17 13:27:42;;;;;;;8.15;6.50;;;;;;;19.32;75.33;100793.16;10126591;28;21086;-76
2023/08/17 13:32:45;;;;;;;7.53;6.15;;;;;;;19.28;75.80;100797.25;10126164;29;21459;-75
2023/08/17 13:37:54;;;;;;;9.82;6.38;;;;;;;19.22;75.05;100791.44;10118241;29;20052;-74
2023/08/17 13:42:58;;;;;;;6.57;5.05;;;;;;;19.29;74.44;100790.78;10120073;29;20063;-75
2023/08/17 13:48:01;;;;;;;8.45;6.05;;;;;;;19.28;74.18;100791.78;10128802;29;20135;-74
2023/08/17 13:53:05;;;;;;;7.13;5.30;;;;;;;19.37;73.63;100783.47;10124444;29;20228;-75
2023/08/17 13:58:10;;;;;;;7.25;5.22;;;;;;;19.36;72.76;100791.78;10121883;29;20044;-75
2023/08/17 14:03:12;;;;;;;7.05;5.20;;;;;;;19.42;73.12;100782.94;10127722;29;20052;-74
2023/08/17 14:08:17;;;;;;;7.38;5.45;;;;;;;19.40;72.90;100802.19;10114487;29;20056;-76
2023/08/17 14:13:20;;;;;;;8.05;5.60;;;;;;;19.38;72.78;100798.75;10122524;29;20052;-79
2023/08/17 14:18:23;;;;;;;9.05;5.65;;;;;;;19.53;72.32;100793.47;10117700;29;20060;-75
2023/08/17 14:23:27;;;;;;;12.32;7.25;;;;;;;19.34;71.78;100789.25;10119815;29;20135;-76
2023/08/17 14:28:30;;;;;;;7.63;5.78;;;;;;;19.33;72.81;100786.69;10129479;29;20055;-75
2023/08/17 14:33:33;;;;;;;9.38;6.40;;;;;;;19.33;72.26;100789.41;10119447;29;20048;-75
2023/08/17 14:38:37;;;;;;;9.32;6.97;;;;;;;19.18;72.67;100797.44;10124548;29;20066;-75
2023/08/17 14:43:40;;;;;;;12.77;6.63;;;;;;;19.34;72.15;100780.25;10118662;29;20465;-76
2023/08/17 14:48:43;;;;;;;10.02;6.53;;;;;;;19.30;72.11;100790.59;10118519;29;20095;-73
2023/08/17 14:53:47;;;;;;;8.48;6.22;;;;;;;19.27;72.00;100785.50;10114293;29;20059;-74
2023/08/17 14:58:50;;;;;;;9.18;6.45;;;;;;;19.19;71.85;100782.78;10121679;29;20420;-74
2023/08/17 15:03:52;;;;;;;8.40;6.57;;;;;;;19.13;72.15;100797.09;10111799;29;20055;-74
2023/08/17 15:08:57;;;;;;;12.75;7.68;;;;;;;18.96;72.43;100786.19;10113198;29;20048;-74
2023/08/17 15:13:59;;;;;;;9.52;6.75;;;;;;;19.03;72.58;100786.34;10123146;29;20138;-74
2023/08/17 15:19:03;;;;;;;11.82;6.75;;;;;;;19.13;72.15;100787.03;10117629;29;20052;-74
2023/08/17 15:24:07;;;;;;;10.52;6.57;;;;;;;19.07;72.03;100778.72;10115697;29;20139;-74
2023/08/17 15:29:10;;;;;;;11.50;7.28;;;;;;;18.93;72.33;100777.53;10117328;29;20424;-74
2023/08/17 15:34:13;;;;;;;11.98;6.65;;;;;;;18.80;72.93;100776.16;10121130;29;20056;-74
2023/08/17 15:39:18;;;;;;;12.43;7.53;;;;;;;18.73;73.42;100779.66;10115757;29;20135;-74
2023/08/17 15:44:20;;;;;;;9.82;7.32;;;;;;;18.66;73.47;100775.94;10118504;29;20059;-73
2023/08/17 15:49:23;;;;;;;12.18;7.22;;;;;;;18.71;74.01;100763.53;10118543;29;21296;-73
2023/08/17 15:54:27;;;;;;;8.45;6.38;;;;;;;18.78;73.69;100750.13;10107747;29;20135;-73
2023/08/17 15:59:39;;;;;;;8.95;7.32;;;;;;;18.69;73.52;100757.41;10112528;29;20789;-73
2023/08/17 16:04:42;;;;;;;11.85;7.47;;;;;;;18.57;73.99;100759.59;10123673;29;20174;-73
2023/08/17 16:09:46;;;;;;;12.30;6.78;;;;;;;18.43;74.26;100765.69;10125316;29;20096;-73
2023/08/17 16:14:48;;;;;;;15.35;6.95;;;;;;;18.42;74.78;100763.97;10126335;29;20047;-74
2023/08/17 16:19:51;;;;;;;13.43;6.95;;;;;;;18.32;74.91;100761.44;10126502;29;20054;-73
2023/08/17 16:24:55;;;;;;;12.13;7.93;;;;;;;18.46;75.09;100761.81;10131268;29;20059;-74
2023/08/17 16:29:58;;;;;;;13.25;7.95;;;;;;;18.60;74.41;100749.41;10134012;29;20570;-74
2023/08/17 16:35:01;;;;;;;15.45;7.63;;;;;;;18.63;74.00;100741.75;10133971;29;20063;-74
2023/08/17 16:40:07;;;;;;;12.43;7.18;;;;;;;18.54;73.92;100745.47;10138563;29;20724;-74
2023/08/17 16:45:14;;;;;;;9.63;6.30;;;;;;;18.45;74.39;100749.19;10140139;28;20507;-74
2023/08/17 16:50:17;;;;;;;9.18;6.03;;;;;;;18.50;74.90;100744.13;10132008;29;20563;-74
2023/08/17 16:55:22;;;;;;;10.57;6.50;;;;;;;18.48;74.28;100744.25;10133533;29;20052;-74
2023/08/17 17:00:25;;;;;;;10.85;6.65;;;;;;;18.48;74.16;100743.41;10133478;28;20401;-73
2023/08/17 17:05:27;;;;;;;10.98;5.75;;;;;;;18.38;74.61;100753.63;10137413;28;20060;-74
2023/08/17 17:10:32;;;;;;;9.15;6.57;;;;;;;18.22;74.96;100755.28;10136923;28;20039;-74
2023/08/17 17:15:34;;;;;;;9.57;5.82;;;;;;;18.15;75.42;100756.94;10134391;29;20047;-74
2023/08/17 17:20:37;;;;;;;9.40;7.05;;;;;;;18.08;75.92;100769.50;10140515;28;20095;-74
2023/08/17 17:25:41;;;;;;;9.70;6.13;;;;;;;18.04;76.08;100759.97;10132139;29;20048;-73
2023/08/17 17:30:45;;;;;;;9.30;6.50;;;;;;;17.90;76.49;100761.41;10134337;29;20048;-73
2023/08/17 17:35:47;;;;;;;10.40;6.47;;;;;;;17.76;76.86;100770.16;10133202;29;20720;-73
2023/08/17 17:40:52;;;;;;;10.20;6.30;;;;;;;17.74;77.27;100772.19;10128679;29;20993;-73
2023/08/17 17:45:54;;;;;;;9.23;6.45;;;;;;;17.72;77.63;100785.06;10116928;29;20427;-73
2023/08/17 17:50:57;;;;;;;10.75;6.95;;;;;;;17.68;77.98;100779.13;10124218;29;20059;-74
2023/08/17 17:56:01;;;;;;;12.50;6.20;;;;;;;17.68;78.40;100781.84;10134329;29;20063;-73
2023/08/17 18:01:04;;;;;;;10.20;7.45;;;;;;;17.66;78.55;100773.88;10132107;29;20058;-74
2023/08/17 18:06:07;;;;;;;12.63;7.00;;;;;;;17.59;78.82;100774.66;10128662;28;20060;-74
2023/08/17 18:11:11;;;;;;;13.13;6.80;;;;;;;17.58;79.18;100762.06;10137019;29;20048;-74
2023/08/17 18:16:14;;;;;;;9.23;6.78;;;;;;;17.60;79.50;100763.63;10134777;28;20100;-73
2023/08/17 18:21:17;;;;;;;10.57;6.45;;;;;;;17.62;79.66;100748.03;10142187;28;20179;-74
2023/08/17 18:26:22;;;;;;;9.95;7.18;;;;;;;17.58;79.77;100756.66;10135851;28;20052;-74
2023/08/17 18:31:25;;;;;;;11.35;6.85;;;;;;;17.48;79.82;100754.91;10123826;28;20064;-73
2023/08/17 18:36:28;;;;;;;9.75;7.03;;;;;;;17.47;80.03;100749.66;10140472;28;20063;-74
2023/08/17 18:41:32;;;;;;;8.45;6.07;;;;;;;17.41;80.27;100764.69;10135080;28;20061;-73
2023/08/17 18:46:35;;;;;;;9.65;6.80;;;;;;;17.39;80.20;100761.31;10143353;28;20052;-74
2023/08/17 18:51:39;;;;;;;8.18;6.53;;;;;;;17.33;80.54;100764.63;10156201;28;20428;-74
2023/08/17 18:56:43;;;;;;;10.95;8.43;;;;;;;17.27;81.01;100768.00;10118834;28;20520;-74
2023/08/17 19:01:46;;;;;;;13.77;7.97;;;;;;;17.26;81.32;100771.72;10145303;28;20059;-73
2023/08/17 19:06:49;;;;;;;11.40;8.25;;;;;;;17.23;81.41;100778.34;10131884;28;20047;-74
2023/08/17 19:11:53;;;;;;;14.55;9.52;;;;;;;17.18;81.49;100785.25;10138334;28;20055;-74
2023/08/17 19:16:57;;;;;;;16.85;10.07;;;;;;;17.15;82.04;100782.84;10133509;28;20054;-74
2023/08/17 19:22:00;;;;;;;17.33;10.13;;;;;;;17.12;82.01;100775.84;10136760;28;20076;-74
2023/08/17 19:27:04;;;;;;;16.48;11.15;;;;;;;17.04;82.25;100770.34;10138867;28;20055;-74
2023/08/17 19:32:07;;;;;;;15.90;11.95;;;;;;;17.03;82.42;100783.06;10123076;29;20086;-74
2023/08/17 19:37:10;;;;;;;16.35;11.88;;;;;;;17.00;82.91;100791.53;10138698;28;20184;-74
2023/08/17 19:42:14;;;;;;;17.83;11.80;;;;;;;17.01;83.10;100790.50;10143813;29;20071;-73
2023/08/17 19:47:19;;;;;;;18.20;12.43;;;;;;;17.06;83.14;100786.44;10136376;28;20067;-73
2023/08/17 19:52:22;;;;;;;18.85;13.35;;;;;;;17.09;83.06;100803.31;10134299;29;20373;-74
2023/08/17 19:57:26;;;;;;;27.05;14.85;;;;;;;17.03;83.28;100791.22;10141122;28;20052;-74
2023/08/17 20:02:30;;;;;;;18.58;12.75;;;;;;;17.11;83.23;100784.97;10113809;29;20053;-73
2023/08/17 20:07:33;;;;;;;19.02;12.60;;;;;;;17.11;83.08;100798.53;10116417;29;20060;-73
2023/08/17 20:12:37;;;;;;;20.58;13.25;;;;;;;17.06;83.17;100800.91;10121456;28;20064;-74
2023/08/17 20:17:40;;;;;;;17.85;13.55;;;;;;;17.09;83.45;100802.47;10133528;28;21203;-74
2023/08/17 20:22:43;;;;;;;18.23;13.50;;;;;;;17.06;83.43;100808.16;10137260;28;20629;-74
2023/08/17 20:27:47;;;;;;;20.27;13.18;;;;;;;17.04;83.81;100811.91;10137505;28;20044;-74
2023/08/17 20:32:50;;;;;;;19.63;13.23;;;;;;;17.08;83.84;100803.44;10133469;29;20052;-74
2023/08/17 20:37:53;;;;;;;22.02;14.35;;;;;;;17.02;84.02;100789.47;10126745;29;20655;-74
2023/08/17 20:42:57;;;;;;;21.58;14.35;;;;;;;16.99;84.36;100786.25;10121959;29;20401;-74
2023/08/17 20:48:00;;;;;;;21.85;14.38;;;;;;;16.96;84.71;100779.25;10138591;28;20074;-74
2023/08/17 20:53:03;;;;;;;23.98;14.75;;;;;;;16.93;85.00;100778.75;10123952;28;20067;-74
2023/08/17 20:58:08;;;;;;;20.80;14.27;;;;;;;16.93;85.34;100765.16;10133741;29;20431;-74
2023/08/17 21:03:11;;;;;;;22.48;13.77;;;;;;;16.97;85.61;100766.53;10127501;29;20054;-74
2023/08/17 21:08:14;;;;;;;22.50;13.88;;;;;;;17.02;85.27;100783.22;10122658;28;20044;-74
2023/08/17 21:13:18;;;;;;;23.27;14.48;;;;;;;17.06;85.20;100778.31;10142270;28;20048;-75
2023/08/17 21:18:21;;;;;;;21.88;13.15;;;;;;;17.08;85.16;100779.00;10123095;29;20055;-74
2023/08/17 21:23:24;;;;;;;25.83;14.43;;;;;;;17.11;84.98;100779.53;10124727;29;20056;-74
2023/08/17 21:28:28;;;;;;;19.90;12.88;;;;;;;17.10;84.69;100768.88;10132720;29;20058;-74
2023/08/17 21:33:31;;;;;;;20.95;12.90;;;;;;;17.07;84.72;100775.47;10136575;29;20696;-74
2023/08/17 21:38:34;;;;;;;23.10;13.32;;;;;;;17.03;84.68;100768.63;10136447;28;20056;-74
2023/08/17 21:43:38;;;;;;;20.70;14.00;;;;;;;17.02;85.22;100769.66;10128513;28;20071;-74
2023/08/17 21:48:41;;;;;;;20.05;13.95;;;;;;;16.92;85.59;100755.31;10129768;28;20494;-74
2023/08/17 21:53:44;;;;;;;21.45;14.90;;;;;;;16.79;86.18;100753.00;10131427;29;20054;-74
2023/08/17 21:58:48;;;;;;;23.27;15.43;;;;;;;16.79;86.75;100747.59;10122148;28;20066;-74
2023/08/17 22:03:51;;;;;;;27.42;15.30;;;;;;;16.72;87.53;100751.91;10132636;28;20136;-74
2023/08/17 22:08:54;;;;;;;30.35;18.45;;;;;;;16.73;87.73;100745.47;10133068;28;20508;-74
2023/08/17 22:13:58;;;;;;;24.67;15.88;;;;;;;16.65;88.10;100743.56;10133575;28;20071;-74
2023/08/17 22:19:01;;;;;;;25.75;15.48;;;;;;;16.66;88.62;100741.69;10129245;29;20062;-74
2023/08/17 22:24:04;;;;;;;26.55;16.38;;;;;;;16.71;88.93;100753.78;10134024;29;20080;-74
2023/08/17 22:29:08;;;;;;;23.58;15.35;;;;;;;16.71;88.82;100742.94;10135204;28;21302;-74
2023/08/17 22:34:11;;;;;;;34.28;16.67;;;;;;;16.69;89.03;100739.50;10141823;28;20131;-75
2023/08/17 22:39:14;;;;;;;24.15;14.68;;;;;;;16.66;89.21;100741.69;10129690;28;20674;-74
2023/08/17 22:44:18;;;;;;;24.15;14.40;;;;;;;16.66;89.53;100749.84;10124740;29;20157;-74
2023/08/17 22:49:21;;;;;;;23.15;14.35;;;;;;;16.73;89.70;100753.59;10133860;29;20059;-74
2023/08/17 22:54:24;;;;;;;22.92;13.10;;;;;;;16.74;89.73;100758.06;10135484;29;20074;-74
2023/08/17 22:59:28;;;;;;;23.77;14.18;;;;;;;16.70;90.11;100757.50;10124203;28;20123;-74
2023/08/17 23:04:31;;;;;;;21.50;13.30;;;;;;;16.67;90.60;100746.94;10117131;28;20155;-74